sensor_id;sensor_type;location;lat;lon;timestamp;pressure;altitude;pressure_sealevel;temperature;humidity
9059;BME280;4564;42.034;25.834;2023-04-16T00:00:56;99782.22;;;12.61;100.00
9059;BME280;4564;42.034;25.834;2023-04-16T00:03:22;99782.00;;;12.56;100.00
9059;BME280;4564;42.034;25.834;2023-04-16T00:05:49;99780.75;;;12.52;100.00
9059;BME280;4564;42.034;25.834;2023-04-16T00:08:15;99787.84;;;12.53;100.00
9059;BME280;4564;42.034;25.834;2023-04-16T00:10:42;99779.91;;;12.58;100.00
9059;BME280;4564;42.034;25.834;2023-04-16T00:13:09;99778.44;;;12.56;100.00
9059;BME280;4564;42.034;25.834;2023-04-16T00:15:37;99779.69;;;12.60;100.00
9059;BME280;4564;42.034;25.834;2023-04-16T00:18:03;99776.97;;;12.60;100.00
9059;BME280;4564;42.034;25.834;2023-04-16T00:20:30;99775.72;;;12.56;100.00
9059;BME280;4564;42.034;25.834;2023-04-16T00:22:57;99776.56;;;12.56;100.00
9059;BME280;4564;42.034;25.834;2023-04-16T00:25:23;99778.00;;;12.59;100.00
9059;BME280;4564;42.034;25.834;2023-04-16T00:27:50;99781.38;;;12.54;100.00
9059;BME280;4564;42.034;25.834;2023-04-16T00:30:17;99782.41;;;12.60;100.00
9059;BME280;4564;42.034;25.834;2023-04-16T00:32:45;99777.16;;;12.65;100.00
9059;BME280;4564;42.034;25.834;2023-04-16T00:35:11;99779.88;;;12.65;100.00
9059;BME280;4564;42.034;25.834;2023-04-16T00:37:38;99771.50;;;12.67;100.00
9059;BME280;4564;42.034;25.834;2023-04-16T00:40:05;99774.63;;;12.70;100.00
9059;BME280;4564;42.034;25.834;2023-04-16T00:42:32;99783.25;;;12.67;100.00
9059;BME280;4564;42.034;25.834;2023-04-16T00:44:59;99773.84;;;12.63;100.00
9059;BME280;4564;42.034;25.834;2023-04-16T00:47:25;99776.13;;;12.66;100.00
9059;BME280;4564;42.034;25.834;2023-04-16T00:49:53;99775.06;;;12.67;100.00
9059;BME280;4564;42.034;25.834;2023-04-16T00:52:20;99780.28;;;12.69;100.00
9059;BME280;4564;42.034;25.834;2023-04-16T00:54:47;99784.91;;;12.68;100.00
9059;BME280;4564;42.034;25.834;2023-04-16T00:57:14;99777.78;;;12.67;100.00
9059;BME280;4564;42.034;25.834;2023-04-16T00:59:40;99779.47;;;12.68;100.00
9059;BME280;4564;42.034;25.834;2023-04-16T01:02:07;99774.44;;;12.72;100.00
9059;BME280;4564;42.034;25.834;2023-04-16T01:04:33;99767.69;;;12.74;100.00
9059;BME280;4564;42.034;25.834;2023-04-16T01:07:02;99769.81;;;12.72;100.00
9059;BME280;4564;42.034;25.834;2023-04-16T01:09:28;99768.78;;;12.67;100.00
9059;BME280;4564;42.034;25.834;2023-04-16T01:11:55;99768.78;;;12.67;100.00
9059;BME280;4564;42.034;25.834;2023-04-16T01:14:22;99767.31;;;12.64;100.00
9059;BME280;4564;42.034;25.834;2023-04-16T01:16:48;99770.66;;;12.66;100.00
9059;BME280;4564;42.034;25.834;2023-04-16T01:19:15;99770.03;;;12.64;100.00
9059;BME280;4564;42.034;25.834;2023-04-16T01:21:43;99769.00;;;12.65;100.00
9059;BME280;4564;42.034;25.834;2023-04-16T01:24:09;99774.44;;;12.65;100.00
9059;BME280;4564;42.034;25.834;2023-04-16T01:26:36;99767.50;;;12.69;100.00
9059;BME280;4564;42.034;25.834;2023-04-16T01:29:02;99766.66;;;12.69;100.00
9059;BME280;4564;42.034;25.834;2023-04-16T01:31:29;99757.25;;;12.71;100.00
9059;BME280;4564;42.034;25.834;2023-04-16T01:33:56;99759.75;;;12.79;100.00
9059;BME280;4564;42.034;25.834;2023-04-16T01:36:22;99749.66;;;12.80;100.00
9059;BME280;4564;42.034;25.834;2023-04-16T01:38:51;99755.13;;;12.80;100.00
9059;BME280;4564;42.034;25.834;2023-04-16T01:41:17;99750.69;;;12.85;100.00
9059;BME280;4564;42.034;25.834;2023-04-16T01:43:44;99755.09;;;12.86;100.00
9059;BME280;4564;42.034;25.834;2023-04-16T01:46:11;99756.34;;;12.90;100.00
9059;BME280;4564;42.034;25.834;2023-04-16T01:48:38;99748.78;;;12.99;100.00
9059;BME280;4564;42.034;25.834;2023-04-16T01:51:05;99757.78;;;12.99;100.00
9059;BME280;4564;42.034;25.834;2023-04-16T01:53:32;99755.44;;;13.03;100.00
9059;BME280;4564;42.034;25.834;2023-04-16T01:56:00;99748.50;;;13.07;100.00
9059;BME280;4564;42.034;25.834;2023-04-16T01:58:27;99752.06;;;13.14;100.00
9059;BME280;4564;42.034;25.834;2023-04-16T02:00:53;99750.81;;;13.17;100.00
9059;BME280;4564;42.034;25.834;2023-04-16T02:03:20;99749.94;;;13.23;100.00
9059;BME280;4564;42.034;25.834;2023-04-16T02:05:48;99745.56;;;13.22;100.00
9059;BME280;4564;42.034;25.834;2023-04-16T02:08:15;99748.47;;;13.27;100.00
9059;BME280;4564;42.034;25.834;2023-04-16T02:10:43;99747.19;;;13.23;100.00
9059;BME280;4564;42.034;25.834;2023-04-16T02:13:12;99754.13;;;13.25;100.00
9059;BME280;4564;42.034;25.834;2023-04-16T02:15:38;99742.34;;;13.31;100.00
9059;BME280;4564;42.034;25.834;2023-04-16T02:18:05;99740.84;;;13.35;100.00
9059;BME280;4564;42.034;25.834;2023-04-16T02:20:31;99752.78;;;13.41;100.00
9059;BME280;4564;42.034;25.834;2023-04-16T02:22:58;99748.53;;;13.45;100.00
9059;BME280;4564;42.034;25.834;2023-04-16T02:25:24;99744.75;;;13.46;100.00
9059;BME280;4564;42.034;25.834;2023-04-16T02:27:51;99749.34;;;13.52;100.00
9059;BME280;4564;42.034;25.834;2023-04-16T02:30:19;99738.22;;;13.54;100.00
9059;BME280;4564;42.034;25.834;2023-04-16T02:32:46;99742.00;;;13.53;100.00
9059;BME280;4564;42.034;25.834;2023-04-16T02:35:13;99739.06;;;13.54;100.00
9059;BME280;4564;42.034;25.834;2023-04-16T02:37:40;99742.22;;;13.51;100.00
9059;BME280;4564;42.034;25.834;2023-04-16T02:40:07;99742.03;;;13.46;100.00
9059;BME280;4564;42.034;25.834;2023-04-16T02:42:34;99741.84;;;13.48;100.00
9059;BME280;4564;42.034;25.834;2023-04-16T02:45:01;99741.63;;;13.49;100.00
9059;BME280;4564;42.034;25.834;2023-04-16T02:47:29;99741.00;;;13.47;100.00
9059;BME280;4564;42.034;25.834;2023-04-16T02:49:56;99736.16;;;13.49;100.00
9059;BME280;4564;42.034;25.834;2023-04-16T02:52:23;99743.09;;;13.45;100.00
9059;BME280;4564;42.034;25.834;2023-04-16T02:54:49;99737.22;;;13.48;100.00
9059;BME280;4564;42.034;25.834;2023-04-16T02:57:16;99742.63;;;13.55;100.00
9059;BME280;4564;42.034;25.834;2023-04-16T02:59:42;99746.56;;;13.59;100.00
9059;BME280;4564;42.034;25.834;2023-04-16T03:02:09;99741.84;;;13.48;100.00
9059;BME280;4564;42.034;25.834;2023-04-16T03:04:37;99744.34;;;13.49;100.00
9059;BME280;4564;42.034;25.834;2023-04-16T03:07:04;99738.44;;;13.52;100.00
9059;BME280;4564;42.034;25.834;2023-04-16T03:09:30;99739.28;;;13.53;100.00
9059;BME280;4564;42.034;25.834;2023-04-16T03:11:57;99749.34;;;13.52;100.00
9059;BME280;4564;42.034;25.834;2023-04-16T03:14:24;99743.06;;;13.52;100.00
9059;BME280;4564;42.034;25.834;2023-04-16T03:16:51;99749.13;;;13.54;100.00
9059;BME280;4564;42.034;25.834;2023-04-16T03:19:17;99755.25;;;13.49;100.00
9059;BME280;4564;42.034;25.834;2023-04-16T03:21:45;99753.53;;;13.55;100.00
9059;BME280;4564;42.034;25.834;2023-04-16T03:24:12;99749.97;;;13.54;100.00
9059;BME280;4564;42.034;25.834;2023-04-16T03:26:38;99753.75;;;13.53;100.00
9059;BME280;4564;42.034;25.834;2023-04-16T03:29:05;99750.16;;;13.59;100.00
9059;BME280;4564;42.034;25.834;2023-04-16T03:31:31;99760.25;;;13.52;100.00
9059;BME280;4564;42.034;25.834;2023-04-16T03:33:58;99762.75;;;13.54;100.00
9059;BME280;4564;42.034;25.834;2023-04-16T03:36:25;99761.94;;;13.53;100.00
9059;BME280;4564;42.034;25.834;2023-04-16T03:38:53;99759.19;;;13.53;100.00
9059;BME280;4564;42.034;25.834;2023-04-16T03:41:20;99766.56;;;13.46;100.00
9059;BME280;4564;42.034;25.834;2023-04-16T03:43:46;99764.22;;;13.50;100.00
9059;BME280;4564;42.034;25.834;2023-04-16T03:46:13;99766.75;;;13.51;100.00
9059;BME280;4564;42.034;25.834;2023-04-16T03:48:39;99769.06;;;13.54;100.00
9059;BME280;4564;42.034;25.834;2023-04-16T03:51:06;99769.47;;;13.51;100.00
9059;BME280;4564;42.034;25.834;2023-04-16T03:53:32;99777.00;;;13.56;100.00
9059;BME280;4564;42.034;25.834;2023-04-16T03:56:00;99779.91;;;13.61;100.00
9059;BME280;4564;42.034;25.834;2023-04-16T03:58:27;99775.09;;;13.56;100.00
9059;BME280;4564;42.034;25.834;2023-04-16T04:00:53;99776.59;;;13.52;100.00
9059;BME280;4564;42.034;25.834;2023-04-16T04:03:20;99772.63;;;13.55;100.00
9059;BME280;4564;42.034;25.834;2023-04-16T04:05:47;99775.78;;;13.52;100.00
9059;BME280;4564;42.034;25.834;2023-04-16T04:08:13;99762.72;;;13.60;100.00
9059;BME280;4564;42.034;25.834;2023-04-16T04:10:40;99761.44;;;13.63;100.00
9059;BME280;4564;42.034;25.834;2023-04-16T04:13:08;99776.53;;;13.65;100.00
9059;BME280;4564;42.034;25.834;2023-04-16T04:15:35;99782.41;;;13.62;100.00
9059;BME280;4564;42.034;25.834;2023-04-16T04:18:02;99781.31;;;13.70;100.00
9059;BME280;4564;42.034;25.834;2023-04-16T04:20:28;99781.53;;;13.68;100.00
9059;BME280;4564;42.034;25.834;2023-04-16T04:22:55;99784.09;;;13.63;100.00
9059;BME280;4564;42.034;25.834;2023-04-16T04:25:21;99790.34;;;13.70;100.00
9059;BME280;4564;42.034;25.834;2023-04-16T04:27:48;99800.56;;;13.81;100.00
9059;BME280;4564;42.034;25.834;2023-04-16T04:30:17;99799.53;;;13.76;100.00
9059;BME280;4564;42.034;25.834;2023-04-16T04:32:43;99808.34;;;13.71;100.00
9059;BME280;4564;42.034;25.834;2023-04-16T04:35:10;99807.47;;;13.77;100.00
9059;BME280;4564;42.034;25.834;2023-04-16T04:37:36;99807.06;;;13.80;100.00
9059;BME280;4564;42.034;25.834;2023-04-16T04:40:03;99809.38;;;13.77;100.00
9059;BME280;4564;42.034;25.834;2023-04-16T04:42:30;99811.66;;;13.80;100.00
9059;BME280;4564;42.034;25.834;2023-04-16T04:44:56;99809.97;;;13.85;100.00
9059;BME280;4564;42.034;25.834;2023-04-16T04:47:24;99805.94;;;13.88;100.00
9059;BME280;4564;42.034;25.834;2023-04-16T04:49:51;99811.97;;;13.97;100.00
9059;BME280;4564;42.034;25.834;2023-04-16T04:52:18;99815.66;;;14.09;100.00
9059;BME280;4564;42.034;25.834;2023-04-16T04:54:45;99813.88;;;14.21;100.00
9059;BME280;4564;42.034;25.834;2023-04-16T04:57:11;99817.22;;;14.73;100.00
9059;BME280;4564;42.034;25.834;2023-04-16T04:59:38;99811.69;;;15.16;100.00
9059;BME280;4564;42.034;25.834;2023-04-16T05:02:04;99818.72;;;15.71;100.00
9059;BME280;4564;42.034;25.834;2023-04-16T05:04:34;99816.88;;;16.48;100.00
9059;BME280;4564;42.034;25.834;2023-04-16T05:07:01;99812.59;;;17.50;100.00
9059;BME280;4564;42.034;25.834;2023-04-16T05:09:27;99817.78;;;18.70;93.30
9059;BME280;4564;42.034;25.834;2023-04-16T05:11:54;99817.00;;;19.35;91.14
9059;BME280;4564;42.034;25.834;2023-04-16T05:14:21;99816.75;;;18.93;90.15
9059;BME280;4564;42.034;25.834;2023-04-16T05:16:48;99819.50;;;18.93;90.17
9059;BME280;4564;42.034;25.834;2023-04-16T05:19:15;99819.16;;;19.50;88.78
9059;BME280;4564;42.034;25.834;2023-04-16T05:21:43;99818.78;;;19.90;86.40
9059;BME280;4564;42.034;25.834;2023-04-16T05:24:09;99822.16;;;19.97;84.81
9059;BME280;4564;42.034;25.834;2023-04-16T05:26:36;99817.63;;;19.86;85.98
9059;BME280;4564;42.034;25.834;2023-04-16T05:29:02;99817.88;;;19.84;84.58
9059;BME280;4564;42.034;25.834;2023-04-16T05:31:29;99820.78;;;19.29;86.03
9059;BME280;4564;42.034;25.834;2023-04-16T05:33:56;99819.56;;;19.20;88.43
9059;BME280;4564;42.034;25.834;2023-04-16T05:36:22;99820.09;;;18.78;87.42
9059;BME280;4564;42.034;25.834;2023-04-16T05:38:50;99808.59;;;18.48;88.85
9059;BME280;4564;42.034;25.834;2023-04-16T05:41:17;99819.66;;;18.53;89.27
9059;BME280;4564;42.034;25.834;2023-04-16T05:43:43;99813.28;;;19.03;88.27
9059;BME280;4564;42.034;25.834;2023-04-16T05:46:10;99807.88;;;19.51;85.75
9059;BME280;4564;42.034;25.834;2023-04-16T05:48:37;99813.53;;;19.23;85.75
9059;BME280;4564;42.034;25.834;2023-04-16T05:51:03;99812.44;;;19.02;86.36
9059;BME280;4564;42.034;25.834;2023-04-16T05:53:30;99814.81;;;18.94;86.36
9059;BME280;4564;42.034;25.834;2023-04-16T05:55:58;99808.53;;;18.60;88.88
9059;BME280;4564;42.034;25.834;2023-04-16T05:58:25;99813.44;;;18.58;87.58
9059;BME280;4564;42.034;25.834;2023-04-16T06:00:51;99804.91;;;18.09;90.91
9059;BME280;4564;42.034;25.834;2023-04-16T06:03:18;99816.00;;;17.97;92.27
9059;BME280;4564;42.034;25.834;2023-04-16T06:05:44;99817.09;;;17.68;92.84
9059;BME280;4564;42.034;25.834;2023-04-16T06:08:11;99809.22;;;17.60;93.78
9059;BME280;4564;42.034;25.834;2023-04-16T06:10:38;99805.59;;;17.43;94.83
9059;BME280;4564;42.034;25.834;2023-04-16T06:13:06;99805.00;;;18.31;94.07
9059;BME280;4564;42.034;25.834;2023-04-16T06:15:32;99815.94;;;20.11;89.24
9059;BME280;4564;42.034;25.834;2023-04-16T06:17:59;99822.81;;;21.77;77.12
9059;BME280;4564;42.034;25.834;2023-04-16T06:20:26;99817.81;;;23.31;70.52
9059;BME280;4564;42.034;25.834;2023-04-16T06:22:52;99826.56;;;23.68;69.93
9059;BME280;4564;42.034;25.834;2023-04-16T06:25:19;99825.97;;;24.15;66.89
9059;BME280;4564;42.034;25.834;2023-04-16T06:27:46;99824.22;;;23.91;66.64
9059;BME280;4564;42.034;25.834;2023-04-16T06:30:14;99829.91;;;23.60;65.86
9059;BME280;4564;42.034;25.834;2023-04-16T06:32:41;99822.38;;;22.81;70.36
9059;BME280;4564;42.034;25.834;2023-04-16T06:35:08;99834.47;;;21.94;74.92
9059;BME280;4564;42.034;25.834;2023-04-16T06:37:35;99821.69;;;21.73;72.42
9059;BME280;4564;42.034;25.834;2023-04-16T06:40:01;99834.22;;;23.02;69.88
9059;BME280;4564;42.034;25.834;2023-04-16T06:42:28;99838.19;;;24.87;67.51
9059;BME280;4564;42.034;25.834;2023-04-16T06:44:55;99840.16;;;26.57;57.32
9059;BME280;4564;42.034;25.834;2023-04-16T06:47:23;99853.22;;;26.75;57.33
9059;BME280;4564;42.034;25.834;2023-04-16T06:49:50;99852.09;;;26.76;57.68
9059;BME280;4564;42.034;25.834;2023-04-16T06:52:16;99839.03;;;27.64;51.25
9059;BME280;4564;42.034;25.834;2023-04-16T06:54:43;99848.88;;;28.11;48.43
9059;BME280;4564;42.034;25.834;2023-04-16T06:57:09;99844.78;;;27.94;49.57
9059;BME280;4564;42.034;25.834;2023-04-16T06:59:36;99851.44;;;29.32;46.82
9059;BME280;4564;42.034;25.834;2023-04-16T07:02:03;99850.97;;;29.08;48.94
9059;BME280;4564;42.034;25.834;2023-04-16T07:04:31;99855.63;;;29.52;45.87
9059;BME280;4564;42.034;25.834;2023-04-16T07:06:57;99848.47;;;29.37;42.70
9059;BME280;4564;42.034;25.834;2023-04-16T07:09:25;99844.13;;;30.53;41.92
9059;BME280;4564;42.034;25.834;2023-04-16T07:11:52;99846.56;;;30.80;42.23
9059;BME280;4564;42.034;25.834;2023-04-16T07:14:19;99845.13;;;29.27;45.39
9059;BME280;4564;42.034;25.834;2023-04-16T07:16:45;99838.94;;;28.18;44.84
9059;BME280;4564;42.034;25.834;2023-04-16T07:19:12;99835.09;;;27.24;50.37
9059;BME280;4564;42.034;25.834;2023-04-16T07:21:40;99836.31;;;27.45;49.08
9059;BME280;4564;42.034;25.834;2023-04-16T07:24:08;99842.09;;;28.39;46.84
9059;BME280;4564;42.034;25.834;2023-04-16T07:26:35;99837.56;;;28.52;46.13
9059;BME280;4564;42.034;25.834;2023-04-16T07:29:01;99833.78;;;28.12;47.62
9059;BME280;4564;42.034;25.834;2023-04-16T07:31:28;99833.44;;;27.23;50.03
9059;BME280;4564;42.034;25.834;2023-04-16T07:33:55;99828.75;;;26.21;49.37
9059;BME280;4564;42.034;25.834;2023-04-16T07:36:21;99823.44;;;24.92;51.52
9059;BME280;4564;42.034;25.834;2023-04-16T07:38:49;99817.38;;;24.56;56.22
9059;BME280;4564;42.034;25.834;2023-04-16T07:41:16;99818.25;;;23.63;55.75
9059;BME280;4564;42.034;25.834;2023-04-16T07:43:42;99813.91;;;23.42;57.72
9059;BME280;4564;42.034;25.834;2023-04-16T07:46:09;99814.19;;;23.40;57.08
9059;BME280;4564;42.034;25.834;2023-04-16T07:48:36;99817.94;;;22.85;59.44
9059;BME280;4564;42.034;25.834;2023-04-16T07:51:03;99808.25;;;22.63;59.52
9059;BME280;4564;42.034;25.834;2023-04-16T07:53:29;99805.50;;;22.22;60.67
9059;BME280;4564;42.034;25.834;2023-04-16T07:55:57;99806.31;;;22.63;61.64
9059;BME280;4564;42.034;25.834;2023-04-16T07:58:24;99811.84;;;22.78;60.29
9059;BME280;4564;42.034;25.834;2023-04-16T08:00:50;99808.44;;;23.17;58.85
9059;BME280;4564;42.034;25.834;2023-04-16T08:03:17;99809.78;;;23.29;59.44
9059;BME280;4564;42.034;25.834;2023-04-16T08:05:43;99815.72;;;22.87;61.67
9059;BME280;4564;42.034;25.834;2023-04-16T08:08:10;99816.25;;;22.13;64.41
9059;BME280;4564;42.034;25.834;2023-04-16T08:10:37;99814.88;;;22.01;66.59
9059;BME280;4564;42.034;25.834;2023-04-16T08:13:05;99818.84;;;21.43;66.33
9059;BME280;4564;42.034;25.834;2023-04-16T08:15:31;99813.50;;;20.84;68.02
9059;BME280;4564;42.034;25.834;2023-04-16T08:17:58;99818.38;;;20.67;69.75
9059;BME280;4564;42.034;25.834;2023-04-16T08:20:25;99812.63;;;20.36;71.60
9059;BME280;4564;42.034;25.834;2023-04-16T08:22:52;99809.81;;;20.31;72.78
9059;BME280;4564;42.034;25.834;2023-04-16T08:25:18;99819.63;;;20.22;72.77
9059;BME280;4564;42.034;25.834;2023-04-16T08:27:47;99808.06;;;20.25;71.83
9059;BME280;4564;42.034;25.834;2023-04-16T08:30:14;99815.56;;;20.03;72.65
9059;BME280;4564;42.034;25.834;2023-04-16T08:32:41;99802.53;;;19.93;72.87
9059;BME280;4564;42.034;25.834;2023-04-16T08:35:08;99804.84;;;19.75;74.26
9059;BME280;4564;42.034;25.834;2023-04-16T08:37:35;99805.88;;;19.68;74.54
9059;BME280;4564;42.034;25.834;2023-04-16T08:40:02;99803.81;;;19.81;74.36
9059;BME280;4564;42.034;25.834;2023-04-16T08:42:29;99805.78;;;19.58;75.77
9059;BME280;4564;42.034;25.834;2023-04-16T08:44:58;99802.66;;;19.77;75.55
9059;BME280;4564;42.034;25.834;2023-04-16T08:47:29;99800.75;;;20.09;74.55
9059;BME280;4564;42.034;25.834;2023-04-16T08:49:59;99795.22;;;19.77;75.79
9059;BME280;4564;42.034;25.834;2023-04-16T08:52:26;99801.25;;;19.74;76.44
9059;BME280;4564;42.034;25.834;2023-04-16T08:54:56;99795.84;;;19.57;75.97
9059;BME280;4564;42.034;25.834;2023-04-16T08:57:26;99800.13;;;19.70;75.89
9059;BME280;4564;42.034;25.834;2023-04-16T08:59:56;99794.75;;;19.58;75.02
9059;BME280;4564;42.034;25.834;2023-04-16T09:02:23;99795.00;;;19.57;76.21
9059;BME280;4564;42.034;25.834;2023-04-16T09:04:52;99796.50;;;19.91;75.61
9059;BME280;4564;42.034;25.834;2023-04-16T09:07:20;99797.88;;;19.94;74.17
9059;BME280;4564;42.034;25.834;2023-04-16T09:09:47;99805.16;;;19.78;74.65
9059;BME280;4564;42.034;25.834;2023-04-16T09:12:13;99803.81;;;19.81;74.03
9059;BME280;4564;42.034;25.834;2023-04-16T09:14:40;99796.25;;;19.71;74.49
9059;BME280;4564;42.034;25.834;2023-04-16T09:17:07;99798.84;;;19.34;76.20
9059;BME280;4564;42.034;25.834;2023-04-16T09:19:34;99791.88;;;19.26;76.54
9059;BME280;4564;42.034;25.834;2023-04-16T09:22:02;99788.53;;;19.03;77.44
9059;BME280;4564;42.034;25.834;2023-04-16T09:24:29;99789.69;;;19.07;78.12
9059;BME280;4564;42.034;25.834;2023-04-16T09:26:56;99784.19;;;19.07;78.49
9059;BME280;4564;42.034;25.834;2023-04-16T09:29:32;99779.63;;;19.17;77.58
9059;BME280;4564;42.034;25.834;2023-04-16T09:32:02;99777.78;;;19.23;78.04
9059;BME280;4564;42.034;25.834;2023-04-16T09:34:30;99785.28;;;19.49;78.01
9059;BME280;4564;42.034;25.834;2023-04-16T09:37:02;99782.28;;;19.51;77.34
9059;BME280;4564;42.034;25.834;2023-04-16T09:39:39;99783.94;;;19.52;77.92
9059;BME280;4564;42.034;25.834;2023-04-16T09:42:06;99781.06;;;19.63;77.50
9059;BME280;4564;42.034;25.834;2023-04-16T09:44:33;99785.34;;;19.11;78.62
9059;BME280;4564;42.034;25.834;2023-04-16T09:47:03;99784.13;;;19.02;80.59
9059;BME280;4564;42.034;25.834;2023-04-16T09:49:32;99784.72;;;19.25;80.01
9059;BME280;4564;42.034;25.834;2023-04-16T09:51:59;99777.72;;;19.61;78.98
9059;BME280;4564;42.034;25.834;2023-04-16T09:54:27;99784.41;;;19.70;78.39
9059;BME280;4564;42.034;25.834;2023-04-16T09:56:55;99776.00;;;20.14;78.14
9059;BME280;4564;42.034;25.834;2023-04-16T09:59:22;99783.56;;;20.56;73.90
9059;BME280;4564;42.034;25.834;2023-04-16T10:01:49;99774.88;;;20.84;72.06
9059;BME280;4564;42.034;25.834;2023-04-16T10:04:17;99780.94;;;20.81;72.01
9059;BME280;4564;42.034;25.834;2023-04-16T10:06:44;99785.13;;;20.83;70.00
9059;BME280;4564;42.034;25.834;2023-04-16T10:09:29;99784.75;;;20.70;72.79
9059;BME280;4564;42.034;25.834;2023-04-16T10:11:56;99791.38;;;20.74;71.76
9059;BME280;4564;42.034;25.834;2023-04-16T10:14:23;99793.59;;;20.35;71.70
9059;BME280;4564;42.034;25.834;2023-04-16T10:16:50;99790.63;;;20.15;73.75
9059;BME280;4564;42.034;25.834;2023-04-16T10:19:17;99793.78;;;20.28;74.60
9059;BME280;4564;42.034;25.834;2023-04-16T10:21:43;99794.22;;;20.15;73.46
9059;BME280;4564;42.034;25.834;2023-04-16T10:24:10;99804.00;;;20.01;73.76
9059;BME280;4564;42.034;25.834;2023-04-16T10:26:38;99798.72;;;19.94;71.41
9059;BME280;4564;42.034;25.834;2023-04-16T10:29:06;99804.31;;;19.78;71.19
9059;BME280;4564;42.034;25.834;2023-04-16T10:31:34;99799.69;;;19.83;71.07
9059;BME280;4564;42.034;25.834;2023-04-16T10:34:01;99798.94;;;19.66;71.03
9059;BME280;4564;42.034;25.834;2023-04-16T10:36:28;99795.38;;;19.22;76.88
9059;BME280;4564;42.034;25.834;2023-04-16T10:38:56;99799.50;;;18.81;78.67
9059;BME280;4564;42.034;25.834;2023-04-16T10:41:24;99790.72;;;18.29;79.77
9059;BME280;4564;42.034;25.834;2023-04-16T10:43:52;99783.38;;;18.18;81.64
9059;BME280;4564;42.034;25.834;2023-04-16T10:46:19;99783.22;;;18.08;82.26
9059;BME280;4564;42.034;25.834;2023-04-16T10:48:47;99787.38;;;18.27;81.55
9059;BME280;4564;42.034;25.834;2023-04-16T10:54:01;99799.22;;;18.61;79.16
9059;BME280;4564;42.034;25.834;2023-04-16T10:56:30;99792.69;;;18.50;79.91
9059;BME280;4564;42.034;25.834;2023-04-16T10:58:59;99785.31;;;18.34;80.41
9059;BME280;4564;42.034;25.834;2023-04-16T11:01:28;99779.53;;;18.35;79.12
9059;BME280;4564;42.034;25.834;2023-04-16T11:03:55;99784.94;;;18.47;78.42
9059;BME280;4564;42.034;25.834;2023-04-16T11:06:23;99774.38;;;18.39;77.87
9059;BME280;4564;42.034;25.834;2023-04-16T11:08:51;99768.47;;;18.30;79.10
9059;BME280;4564;42.034;25.834;2023-04-16T11:11:18;99771.72;;;18.11;79.96
9059;BME280;4564;42.034;25.834;2023-04-16T11:13:45;99758.59;;;18.13;80.03
9059;BME280;4564;42.034;25.834;2023-04-16T11:16:13;99762.06;;;18.25;78.93
9059;BME280;4564;42.034;25.834;2023-04-16T11:18:40;99757.41;;;18.09;79.19
9059;BME280;4564;42.034;25.834;2023-04-16T11:21:07;99751.81;;;18.20;80.64
9059;BME280;4564;42.034;25.834;2023-04-16T11:23:45;99750.25;;;18.24;80.07
9059;BME280;4564;42.034;25.834;2023-04-16T11:28:54;99735.75;;;19.06;78.45
9059;BME280;4564;42.034;25.834;2023-04-16T11:31:22;99745.66;;;19.50;75.00
9059;BME280;4564;42.034;25.834;2023-04-16T11:33:51;99753.75;;;19.89;72.80
9059;BME280;4564;42.034;25.834;2023-04-16T11:36:18;99745.19;;;19.85;69.85
9059;BME280;4564;42.034;25.834;2023-04-16T11:38:45;99743.81;;;19.88;70.22
9059;BME280;4564;42.034;25.834;2023-04-16T11:41:17;99752.03;;;19.83;70.90
9059;BME280;4564;42.034;25.834;2023-04-16T11:43:44;99750.66;;;20.12;69.78
9059;BME280;4564;42.034;25.834;2023-04-16T11:46:11;99751.78;;;20.16;68.92
9059;BME280;4564;42.034;25.834;2023-04-16T11:48:49;99751.78;;;19.84;70.67
9059;BME280;4564;42.034;25.834;2023-04-16T11:51:16;99746.25;;;19.52;73.28
9059;BME280;4564;42.034;25.834;2023-04-16T11:53:47;99740.31;;;19.44;74.83
9059;BME280;4564;42.034;25.834;2023-04-16T11:56:13;99741.25;;;19.06;75.95
9059;BME280;4564;42.034;25.834;2023-04-16T11:58:42;99736.66;;;18.90;75.98
9059;BME280;4564;42.034;25.834;2023-04-16T12:01:08;99736.19;;;18.76;76.76
9059;BME280;4564;42.034;25.834;2023-04-16T12:03:39;99738.56;;;18.67;77.24
9059;BME280;4564;42.034;25.834;2023-04-16T12:06:09;99726.59;;;18.40;79.79
9059;BME280;4564;42.034;25.834;2023-04-16T12:08:36;99720.88;;;18.08;81.10
9059;BME280;4564;42.034;25.834;2023-04-16T12:11:03;99718.31;;;18.01;80.89
9059;BME280;4564;42.034;25.834;2023-04-16T12:13:30;99719.47;;;17.89;82.26
9059;BME280;4564;42.034;25.834;2023-04-16T12:16:06;99715.22;;;17.81;82.77
9059;BME280;4564;42.034;25.834;2023-04-16T12:18:44;99711.97;;;17.68;83.22
9059;BME280;4564;42.034;25.834;2023-04-16T12:21:25;99693.97;;;17.60;83.61
9059;BME280;4564;42.034;25.834;2023-04-16T12:23:52;99688.63;;;17.53;84.91
9059;BME280;4564;42.034;25.834;2023-04-16T12:26:19;99688.78;;;17.47;85.92
9059;BME280;4564;42.034;25.834;2023-04-16T12:28:45;99681.63;;;17.46;86.26
9059;BME280;4564;42.034;25.834;2023-04-16T12:31:12;99675.47;;;17.39;87.04
9059;BME280;4564;42.034;25.834;2023-04-16T12:33:39;99666.22;;;17.28;88.34
9059;BME280;4564;42.034;25.834;2023-04-16T12:36:15;99662.16;;;17.31;88.11
9059;BME280;4564;42.034;25.834;2023-04-16T12:38:43;99660.81;;;17.33;88.75
9059;BME280;4564;42.034;25.834;2023-04-16T12:41:10;99664.09;;;17.47;88.75
9059;BME280;4564;42.034;25.834;2023-04-16T12:43:37;99670.19;;;17.82;87.49
9059;BME280;4564;42.034;25.834;2023-04-16T12:46:03;99661.41;;;17.97;85.29
9059;BME280;4564;42.034;25.834;2023-04-16T12:48:30;99661.72;;;18.00;84.37
9059;BME280;4564;42.034;25.834;2023-04-16T12:50:58;99658.03;;;18.50;83.22
9059;BME280;4564;42.034;25.834;2023-04-16T12:53:24;99658.19;;;18.60;82.04
9059;BME280;4564;42.034;25.834;2023-04-16T12:55:53;99646.44;;;18.65;81.20
9059;BME280;4564;42.034;25.834;2023-04-16T12:58:19;99654.78;;;18.97;80.11
9059;BME280;4564;42.034;25.834;2023-04-16T13:00:46;99644.97;;;19.06;76.49
9059;BME280;4564;42.034;25.834;2023-04-16T13:03:13;99644.84;;;19.17;76.41
9059;BME280;4564;42.034;25.834;2023-04-16T13:05:40;99640.22;;;19.50;75.18
9059;BME280;4564;42.034;25.834;2023-04-16T13:08:06;99646.06;;;19.53;73.74
9059;BME280;4564;42.034;25.834;2023-04-16T13:10:33;99642.16;;;19.49;74.19
9059;BME280;4564;42.034;25.834;2023-04-16T13:13:01;99650.59;;;19.69;73.08